Meteo Giornale » Osservazioni meteo Stati Uniti (USA) » Sedalia Memorial
ore: 17:53 - Osservazioni Meteo Sedalia Memorial
Lat. 38° 42' N Lon. 93° 10' W Alt. 277 metri s.l.m.
36 °C
Sereno
Temp. 24 Ore
24 °C
37 °C
Sud/Sud-Ovest
13 Km/h
Dew point 18 °C
Umidità 34 %
Visibilità 10 Km
Il sole sorge alle ore 06:41
Il sole tramonta alle ore 19:44
| Data e Ora | Cielo e Fenomeni | T °C | DP °C | Um. % | Pres. hPa | Vis. km | Vento km/h | |
|---|---|---|---|---|---|---|---|---|
| Oggi h: 17:53 | Sereno | 36 | 18 | 34 | 1014 | 10 | S/SO 13 | |
| Oggi h: 16:53 | Sereno | 36 | 19 | 36 | 1014 | 10 | SO 13 | |
| Oggi h: 15:53 | Sereno | 37 | 18 | 32 | 1015 | 10 | N 0 | |
| Oggi h: 14:53 | Sereno | 37 | 17 | 30 | 1015 | 10 | SO 16.7 | |
| Oggi h: 13:53 | Sereno | 36 | 19 | 36 | 1016 | 10 | SO 14.8 | |
| Oggi h: 12:53 | Sereno | 34 | 18 | 38 | 1016 | 10 | SO 18.5 | |
| Oggi h: 11:53 | Sereno | 33 | 19 | 43 | 1017 | 10 | SO 18.5 | |
| Oggi h: 10:53 | Sereno | 32 | 19 | 46 | 1017 | 10 | SO 22.2 | |
| Oggi h: 09:53 | Sereno | 30 | 19 | 51 | 1017 | 10 | SO 18.5 | |
| Oggi h: 08:53 | Sereno | 27 | 18 | 57 | 1017 | 10 | S/SO 22.2 | |
| Oggi h: 07:53 | Sereno | 25 | 17 | 61 | 1016 | 10 | S/SO 20.3 | |
| Oggi h: 06:53 | Sereno | 24 | 17 | 64 | 1016 | 10 | S 16.7 | |
| Oggi h: 05:53 | Sereno | 24 | 17 | 64 | 1015 | 10 | S 14.8 | |
| Oggi h: 04:53 | Sereno | 24 | 17 | 64 | 1015 | 10 | S 18.5 | |
| Oggi h: 03:53 | Sereno | 24 | 17 | 64 | 1015 | 10 | S 16.7 | |
| Oggi h: 02:53 | Sereno | 25 | 17 | 61 | 1015 | 10 | S 18.5 | |
| Oggi h: 01:53 | Sereno | 26 | 17 | 57 | 1015 | 10 | S 18.5 | |
| Oggi h: 00:53 | Sereno | 25 | 17 | 61 | 1015 | 10 | S 14.8 | |
| Ieri h: 23:53 | Sereno | 26 | 17 | 57 | 1014 | 10 | S 14.8 | |
| Ieri h: 22:53 | Sereno | 26 | 18 | 61 | 1014 | 10 | S 14.8 | |
| Ieri h: 21:53 | Sereno | 26 | 18 | 61 | 1014 | 10 | S 13 | |
| Ieri h: 20:53 | Sereno | 27 | 19 | 61 | 1014 | 10 | S 11.1 | |
| Ieri h: 19:53 | Sereno | 28 | 19 | 58 | 1012 | 10 | S/SE 13 | |
| Ieri h: 18:53 | Sereno | 32 | 21 | 52 | 1013 | 10 | S 11.1 | |



